Burlington (BTV/KBTV)

Map

Destinations

Information

Location
Burlington, VT
Local Time
13:01 / 1:01 pm
GMT Time
18:01 / 6:01 pm
Gates
3
No FAA reported delays
METAR KBTV 191754Z 29014G22KT 9SM -SN OVC029 02/M04 A2937 RMK AO2 SLP950 P0001 60018 T00171044 10094 20017 53037
TAF KBTV 191722Z 1918/2018 29017G30KT 5SM -SHSN BR BKN035 OVC050 FM192000 29015G28KT P6SM BKN050 OVC100 FM200300 30012G20KT P6SM BKN050 FM201100 29014G22KT P6SM SCT050